20 | 11 | 2018

Daten Vortag

Wetterdaten von 10m Höhe gemessen, Station 2

Datum / Zeit Intervall min Luftfeuchte % Temperatur °C absolut Luftdruck hPa Wind m/s Windbö m/s Richtung Relative Luftdruck hPa Taupunkt °C Windchill °C Niederschlag mm
19-11-2018 00:12 5 89 5.6 1026.3 8.6 13.3 NW 1029.8 3.9 3.2 0.0
19-11-2018 00:18 5 89 5.5 1026.4 11.2 13.3 NE 1029.9 3.8 1.6 0.0
19-11-2018 00:23 5 89 5.3 1026.1 6.1 9.7 N 1029.6 3.6 5.3 0.0
19-11-2018 00:28 5 90 5.2 1026.3 8.6 14.8 NE 1029.8 3.7 2.8 0.0
19-11-2018 00:33 5 90 5.1 1026.0 11.2 14.8 N 1029.5 3.6 1.1 0.0
19-11-2018 00:38 5 91 5.1 1026.1 11.2 13.3 NE 1029.6 3.8 1.1 0.0
19-11-2018 00:43 5 91 5.1 1026.1 8.6 11.2 N 1029.6 3.8 2.7 0.0
19-11-2018 00:48 5 91 5.0 1026.0 8.6 11.2 N 1029.5 3.7 2.6 0.0
19-11-2018 00:53 5 91 5.0 1025.9 6.1 8.6 N 1029.4 3.7 5.0 0.0
19-11-2018 00:58 5 92 4.9 1025.8 7.2 13.3 N 1029.3 3.7 3.5 0.0
19-11-2018 01:03 5 92 5.0 1025.8 13.3 17.3 N 1029.3 3.8 -0.2 0.0
19-11-2018 01:08 5 92 5.1 1025.6 6.1 8.6 NE 1029.1 3.9 5.1 0.0
19-11-2018 01:13 5 92 5.1 1025.4 11.2 14.8 N 1028.9 3.9 1.1 0.0
19-11-2018 01:18 5 92 5.0 1025.5 8.6 12.2 NE 1029.0 3.8 2.6 0.0
19-11-2018 01:23 5 93 5.1 1025.4 8.6 12.2 NW 1028.9 4.1 2.7 0.0
19-11-2018 01:28 5 93 5.1 1025.2 12.2 14.8 NE 1028.7 4.1 0.5 0.0
19-11-2018 01:33 5 92 5.2 1025.3 13.3 15.8 N 1028.8 4.0 0.1 0.0
19-11-2018 01:38 5 92 5.3 1025.2 13.3 17.3 NE 1028.7 4.1 0.2 0.0
19-11-2018 01:43 5 91 5.3 1025.2 11.2 13.3 NE 1028.7 4.0 1.3 0.0
19-11-2018 01:48 5 91 5.3 1025.2 9.7 13.3 NWW 1028.7 4.0 2.2 0.0
19-11-2018 01:53 5 91 5.3 1025.1 11.2 14.8 NE 1028.6 4.0 1.3 0.0
19-11-2018 01:58 5 91 5.3 1025.0 11.2 17.3 NWW 1028.5 4.0 1.3 0.0
19-11-2018 02:03 5 92 5.5 1025.0 14.8 22.0 NE 1028.5 4.3 -0.2 0.0
19-11-2018 02:08 5 92 5.5 1024.8 14.8 22.0 NE 1028.3 4.3 -0.2 0.0
19-11-2018 02:13 5 91 5.7 1024.7 13.3 17.3 N 1028.2 4.4 0.7 0.0
19-11-2018 02:18 5 90 5.8 1024.7 8.6 14.8 NE 1028.2 4.3 3.4 0.0
19-11-2018 02:23 5 90 5.8 1024.6 12.2 22.0 NE 1028.1 4.3 1.3 0.0
19-11-2018 02:28 5 89 5.8 1024.5 11.2 13.3 NE 1028.0 4.1 1.9 0.0
19-11-2018 02:33 5 89 5.8 1024.6 9.7 14.8 NE 1028.1 4.1 2.7 0.0
19-11-2018 02:38 5 89 5.8 1024.5 8.6 14.8 NE 1028.0 4.1 3.4 0.0
19-11-2018 02:43 5 88 5.8 1024.3 7.2 13.3 NEE 1027.8 4.0 4.5 0.0
19-11-2018 02:48 5 88 5.8 1024.3 13.3 22.0 NE 1027.8 4.0 0.8 0.0
19-11-2018 02:53 5 88 5.9 1024.2 12.2 15.8 NE 1027.7 4.1 1.4 0.0
19-11-2018 02:58 5 87 6.0 1024.2 12.2 15.8 SW 1027.7 4.0 1.6 0.0
19-11-2018 03:03 5 86 6.0 1024.1 12.2 15.8 NE 1027.6 3.8 1.6 0.0
19-11-2018 03:08 5 86 6.0 1024.1 15.8 23.4 NE 1027.6 3.8 -0.1 0.0
19-11-2018 03:13 5 86 6.0 1024.1 15.8 30.6 NE 1027.6 3.8 -0.1 0.0
19-11-2018 03:18 5 86 6.0 1024.0 14.8 23.4 NE 1027.5 3.8 0.4 0.0
19-11-2018 03:23 5 87 6.0 1023.9 14.8 20.9 NE 1027.4 4.0 0.4 0.0
19-11-2018 03:28 5 88 5.9 1023.8 9.7 14.8 NE 1027.3 4.1 2.8 0.0
19-11-2018 03:33 5 88 5.8 1023.6 11.2 15.8 NE 1027.1 4.0 1.9 0.0
19-11-2018 03:38 5 88 5.8 1023.7 17.3 25.6 NE 1027.2 4.0 -0.9 0.0
19-11-2018 03:43 5 88 5.8 1023.8 14.8 24.5 NE 1027.3 4.0 0.1 0.0
19-11-2018 03:48 5 88 5.8 1023.7 11.2 15.8 E 1027.2 4.0 1.9 0.0
19-11-2018 03:53 5 88 5.7 1023.5 13.3 18.4 NEE 1027.0 3.9 0.7 0.0
19-11-2018 03:58 5 88 5.6 1023.6 8.6 9.7 N 1027.1 3.8 3.2 0.0
19-11-2018 04:03 5 88 5.6 1023.6 6.1 12.2 NE 1027.1 3.8 5.6 0.0
19-11-2018 04:08 5 88 5.6 1023.6 6.1 12.2 NE 1027.1 3.8 5.6 0.0
19-11-2018 04:13 5 89 5.6 1023.6 8.6 13.3 NE 1027.1 3.9 3.2 0.0
19-11-2018 04:18 5 89 5.6 1023.5 11.2 13.3 NE 1027.0 3.9 1.7 0.0
19-11-2018 04:23 5 89 5.6 1023.3 8.6 11.2 NE 1026.8 3.9 3.2 0.0
19-11-2018 04:28 5 88 5.7 1023.3 14.8 22.0 NE 1026.8 3.9 0.0 0.0
19-11-2018 04:33 5 88 5.8 1023.2 14.8 20.9 NE 1026.7 4.0 0.1 0.0
19-11-2018 04:38 5 87 5.9 1023.2 18.4 25.6 NNE 1026.7 3.9 -1.2 0.0
19-11-2018 04:43 5 87 5.9 1023.1 13.3 18.4 E 1026.6 3.9 0.9 0.0
19-11-2018 04:48 5 86 5.8 1023.1 14.8 19.4 NE 1026.6 3.6 0.1 0.0
19-11-2018 04:53 5 86 5.8 1023.1 13.3 25.6 NE 1026.6 3.6 0.8 0.0
19-11-2018 04:58 5 86 5.7 1023.0 14.8 18.4 NE 1026.5 3.5 0.0 0.0
19-11-2018 05:03 5 86 5.7 1022.8 11.2 19.4 NE 1026.3 3.5 1.8 0.0
19-11-2018 05:08 5 87 5.6 1022.9 18.4 25.6 NE 1026.4 3.6 -1.5 0.0
19-11-2018 05:13 5 87 5.6 1022.9 9.7 12.2 E 1026.4 3.6 2.5 0.0
19-11-2018 05:18 5 88 5.6 1022.8 11.2 18.4 NE 1026.3 3.8 1.7 0.0
19-11-2018 05:23 5 88 5.6 1022.9 6.1 11.2 NE 1026.4 3.8 5.6 0.0
19-11-2018 05:28 5 89 5.5 1022.9 8.6 11.2 SSE 1026.4 3.8 3.1 0.0
19-11-2018 05:33 5 89 5.5 1022.8 8.6 12.2 NE 1026.3 3.8 3.1 0.0
19-11-2018 05:38 5 89 5.4 1022.9 7.2 9.7 E 1026.4 3.7 4.0 0.0
19-11-2018 05:43 5 90 5.5 1022.8 7.2 11.2 NE 1026.3 4.0 4.2 0.0
19-11-2018 05:48 5 89 5.5 1022.8 11.2 14.8 NEE 1026.3 3.8 1.6 0.0
19-11-2018 05:53 5 89 5.5 1022.8 12.2 14.8 NE 1026.3 3.8 1.0 0.0
19-11-2018 05:58 5 89 5.5 1022.7 11.2 14.8 NNE 1026.2 3.8 1.6 0.0
19-11-2018 06:03 5 89 5.4 1022.8 8.6 11.2 NE 1026.3 3.7 3.0 0.0
19-11-2018 06:08 5 89 5.3 1022.6 7.2 9.7 E 1026.1 3.6 3.9 0.0
19-11-2018 06:13 5 89 5.3 1022.8 6.1 7.2 E 1026.3 3.6 5.3 0.0
19-11-2018 06:18 5 89 5.2 1022.6 5.0 6.1 E 1026.1 3.5 5.2 0.0
19-11-2018 06:23 5 90 5.2 1022.6 5.0 7.2 E 1026.1 3.7 5.2 0.0
19-11-2018 06:28 5 90 5.2 1022.5 1.1 5.0 E 1026.0 3.7 5.2 0.0
19-11-2018 06:33 5 91 5.1 1022.5 2.5 5.0 NE 1026.0 3.8 5.1 0.0
19-11-2018 06:38 5 91 5.0 1022.5 3.6 5.0 E 1026.0 3.7 5.0 0.0
19-11-2018 06:43 5 91 5.0 1022.6 2.5 3.6 E 1026.1 3.7 5.0 0.0
19-11-2018 06:48 5 91 5.0 1022.5 2.5 5.0 NE 1026.0 3.7 5.0 0.0
19-11-2018 06:53 5 92 4.8 1022.4 5.0 6.1 NE 1025.9 3.6 4.8 0.0
19-11-2018 06:58 5 92 4.6 1022.4 3.6 6.1 NE 1025.9 3.4 4.6 0.0
19-11-2018 07:03 5 92 4.6 1022.4 8.6 11.2 NE 1025.9 3.4 2.1 0.0
19-11-2018 07:08 5 91 4.5 1022.5 6.1 7.2 NE 1026.0 3.2 4.5 0.0
19-11-2018 07:13 5 90 4.5 1022.5 7.2 9.7 NE 1026.0 3.0 3.1 0.0
19-11-2018 07:18 5 89 4.5 1022.5 3.6 6.1 NNE 1026.0 2.9 4.5 0.0
19-11-2018 07:23 5 89 4.4 1022.5 7.2 9.7 NE 1026.0 2.8 3.0 0.0
19-11-2018 07:28 5 89 4.3 1022.6 6.1 9.7 E 1026.1 2.7 4.3 0.0
19-11-2018 07:33 5 89 4.2 1022.7 6.1 8.6 NE 1026.2 2.6 4.2 0.0
19-11-2018 07:38 5 89 4.1 1022.9 12.2 15.8 NE 1026.4 2.5 -0.7 0.0
19-11-2018 07:43 5 90 4.1 1023.0 9.7 13.3 E 1026.5 2.6 0.8 0.0
19-11-2018 07:48 5 91 4.0 1023.0 8.6 11.2 NE 1026.5 2.7 1.5 0.0
19-11-2018 07:53 5 92 4.2 1023.0 7.2 11.2 NEE 1026.5 3.0 2.8 0.0
19-11-2018 07:58 5 92 4.1 1023.1 9.7 12.2 NE 1026.6 2.9 0.8 0.0
19-11-2018 08:03 5 93 4.1 1023.1 8.6 13.3 NE 1026.6 3.1 1.6 0.0
19-11-2018 08:08 5 93 4.1 1023.0 8.6 13.3 NE 1026.5 3.1 1.6 0.0
19-11-2018 08:13 5 93 4.2 1023.2 8.6 11.2 NE 1026.7 3.2 1.7 0.0
19-11-2018 08:18 5 92 4.2 1023.3 13.3 15.8 NE 1026.8 3.0 -1.1 0.0
19-11-2018 08:23 5 92 4.3 1023.4 9.7 12.2 NE 1026.9 3.1 1.1 0.0
19-11-2018 08:28 5 91 4.5 1023.4 7.2 8.6 NE 1026.9 3.2 3.1 0.0
19-11-2018 08:33 5 91 4.7 1023.3 11.2 14.8 NE 1026.8 3.4 0.6 0.0
19-11-2018 08:38 5 90 4.5 1023.5 7.2 9.7 NE 1027.0 3.0 3.1 0.0
19-11-2018 08:43 5 90 4.4 1023.4 8.6 13.3 NE 1026.9 2.9 1.9 0.0
19-11-2018 08:48 5 91 4.4 1023.5 7.2 9.7 NE 1027.0 3.1 3.0 0.0
19-11-2018 08:53 5 91 4.5 1023.5 13.3 19.4 NE 1027.0 3.2 -0.7 0.0
19-11-2018 08:58 5 91 4.8 1023.6 9.7 12.2 NE 1027.1 3.5 1.6 0.0
19-11-2018 09:03 5 90 4.9 1023.6 11.2 15.8 E 1027.1 3.4 0.9 0.0
19-11-2018 09:08 5 88 5.1 1023.6 14.8 19.4 E 1027.1 3.3 -0.7 0.0
19-11-2018 09:13 5 88 5.2 1023.6 13.3 15.8 NE 1027.1 3.4 0.1 0.0
19-11-2018 09:18 5 88 5.1 1023.6 12.2 17.3 NE 1027.1 3.3 0.5 0.0
19-11-2018 09:23 5 88 5.0 1023.5 14.8 19.4 NE 1027.0 3.2 -0.8 0.0
19-11-2018 09:28 5 88 5.3 1023.6 13.3 22.0 E 1027.1 3.5 0.2 0.0
19-11-2018 09:33 5 87 5.7 1023.6 13.3 18.4 N 1027.1 3.7 0.7 0.0
19-11-2018 09:38 5 86 5.6 1023.6 15.8 23.4 NE 1027.1 3.5 -0.6 0.0
19-11-2018 09:43 5 86 5.4 1023.5 12.2 18.4 NE 1027.0 3.3 0.9 0.0
19-11-2018 09:48 5 86 5.3 1023.6 8.6 11.2 E 1027.1 3.2 2.9 0.0
19-11-2018 09:53 5 86 5.3 1023.6 15.8 19.4 NE 1027.1 3.2 -0.9 0.0
19-11-2018 09:58 5 87 5.2 1023.5 12.2 14.8 NEE 1027.0 3.2 0.6 0.0
19-11-2018 10:03 5 87 5.2 1023.5 12.2 17.3 NNE 1027.0 3.2 0.6 0.0
19-11-2018 10:08 5 87 5.1 1023.7 11.2 15.8 NE 1027.2 3.1 1.1 0.0
19-11-2018 10:13 5 88 5.2 1023.5 11.2 15.8 NNE 1027.0 3.4 1.2 0.0
19-11-2018 10:18 5 87 5.8 1023.4 15.8 25.6 NE 1026.9 3.8 -0.3 0.0
19-11-2018 10:23 5 86 6.2 1023.6 18.4 29.5 NE 1027.1 4.0 -0.8 0.0
19-11-2018 10:28 5 85 6.4 1023.6 11.2 18.4 NE 1027.1 4.1 2.6 0.0
19-11-2018 10:33 5 83 6.5 1023.4 20.9 24.5 NE 1026.9 3.8 -1.2 0.0
19-11-2018 10:38 5 83 6.6 1023.4 15.8 19.4 NE 1026.9 3.9 0.7 0.0
19-11-2018 10:43 5 83 6.8 1023.4 17.3 23.4 E 1026.9 4.1 0.4 0.0
19-11-2018 10:48 5 82 6.8 1023.5 12.2 18.4 NEE 1027.0 4.0 2.5 0.0
19-11-2018 10:53 5 82 6.9 1023.5 17.3 22.0 NE 1027.0 4.0 0.5 0.0
19-11-2018 10:58 5 82 6.8 1023.4 11.2 15.8 E 1026.9 4.0 3.0 0.0
19-11-2018 11:03 5 82 6.9 1023.4 17.3 24.5 E 1026.9 4.0 0.5 0.0
19-11-2018 11:08 5 82 6.8 1023.3 12.2 18.4 NE 1026.8 4.0 2.5 0.0
19-11-2018 11:13 5 82 6.5 1023.4 15.8 23.4 E 1026.9 3.7 0.5 0.0
19-11-2018 11:18 5 82 6.4 1023.3 12.2 19.4 E 1026.8 3.6 2.0 0.0
19-11-2018 11:23 5 82 6.3 1023.4 15.8 19.4 NEE 1026.9 3.5 0.3 0.0
19-11-2018 11:28 5 82 6.2 1023.4 8.6 14.8 E 1026.9 3.4 3.9 0.0
19-11-2018 11:33 5 83 6.2 1023.4 17.3 29.5 E 1026.9 3.5 -0.4 0.0
19-11-2018 11:38 5 83 6.2 1023.4 12.2 17.3 E 1026.9 3.5 1.8 0.0
19-11-2018 11:43 5 83 6.1 1023.3 14.8 19.4 E 1026.8 3.4 0.5 0.0
19-11-2018 11:48 5 83 6.2 1023.3 14.8 24.5 E 1026.8 3.5 0.6 0.0
19-11-2018 11:53 5 84 6.2 1023.3 12.2 17.3 E 1026.8 3.7 1.8 0.0
19-11-2018 11:58 5 84 6.2 1023.2 13.3 20.9 E 1026.7 3.7 1.3 0.0
19-11-2018 12:03 5 84 6.3 1023.2 7.2 9.7 E 1026.7 3.8 5.0 0.0
19-11-2018 12:08 5 84 6.3 1023.0 7.2 9.7 E 1026.5 3.8 5.0 0.0
19-11-2018 12:13 5 84 6.3 1023.1 19.4 27.0 NE 1026.6 3.8 -1.0 0.0
19-11-2018 12:18 5 84 6.3 1023.1 18.4 23.4 E 1026.6 3.8 -0.6 0.0
19-11-2018 12:23 5 84 6.3 1023.0 9.7 13.3 NEE 1026.5 3.8 3.3 0.0
19-11-2018 12:28 5 84 6.3 1023.0 12.2 17.3 NNE 1026.5 3.8 1.9 0.0
19-11-2018 12:33 5 84 6.6 1022.8 9.7 11.2 E 1026.3 4.1 3.6 0.0
19-11-2018 12:38 5 84 6.5 1023.0 17.3 20.9 E 1026.5 4.0 0.0 0.0
19-11-2018 12:43 5 84 6.5 1022.8 14.8 20.9 E 1026.3 4.0 1.0 0.0
19-11-2018 12:48 5 82 6.3 1022.8 18.4 27.0 NEE 1026.3 3.5 -0.6 0.0
19-11-2018 12:53 5 80 6.3 1022.7 20.9 28.1 E 1026.2 3.1 -1.5 0.0
19-11-2018 12:58 5 79 6.2 1022.9 12.2 17.3 E 1026.4 2.8 1.8 0.0
19-11-2018 13:03 5 80 6.2 1022.8 19.4 31.7 NEE 1026.3 3.0 -1.1 0.0
19-11-2018 13:08 5 79 6.3 1022.8 14.8 22.0 NE 1026.3 2.9 0.7 0.0
19-11-2018 13:13 5 78 6.3 1022.8 19.4 27.0 NE 1026.3 2.8 -1.0 0.0
19-11-2018 13:18 5 78 6.8 1022.7 17.3 23.4 E 1026.2 3.2 0.4 0.0
19-11-2018 13:23 5 76 7.0 1022.6 15.8 20.9 E 1026.1 3.1 1.2 0.0
19-11-2018 13:28 5 75 7.0 1022.6 15.8 22.0 NEE 1026.1 2.9 1.2 0.0
19-11-2018 13:33 5 77 6.8 1022.7 20.9 24.5 E 1026.2 3.1 -0.8 0.0
19-11-2018 13:38 5 77 6.6 1022.6 12.2 17.3 SEE 1026.1 2.9 2.3 0.0
19-11-2018 13:43 5 78 6.5 1022.7 14.8 18.4 E 1026.2 2.9 1.0 0.0
19-11-2018 13:48 5 78 6.5 1022.7 12.2 17.3 E 1026.2 2.9 2.1 0.0
19-11-2018 13:53 5 78 6.6 1022.6 13.3 17.3 E 1026.1 3.0 1.7 0.0
19-11-2018 13:58 5 78 6.9 1022.6 13.3 17.3 NEE 1026.1 3.3 2.1 0.0
19-11-2018 14:03 5 77 7.4 1022.6 9.7 15.8 SEE 1026.1 3.6 4.5 0.0
19-11-2018 14:08 5 76 7.4 1022.6 12.2 14.8 NE 1026.1 3.5 3.2 0.0
19-11-2018 14:13 5 76 6.8 1022.7 6.1 11.2 E 1026.2 2.9 6.8 0.0
19-11-2018 14:18 5 78 6.6 1022.6 5.0 9.7 SE 1026.1 3.0 6.6 0.0
19-11-2018 14:23 5 78 6.6 1022.7 7.2 11.2 E 1026.2 3.0 5.3 0.0
19-11-2018 14:28 5 79 6.7 1022.6 12.2 14.8 E 1026.1 3.3 2.4 0.0
19-11-2018 14:33 5 78 6.5 1022.7 7.2 13.3 NEE 1026.2 2.9 5.2 0.0
19-11-2018 14:38 5 77 6.3 1022.6 20.9 25.6 NE 1026.1 2.6 -1.5 0.0
19-11-2018 14:43 5 77 6.3 1022.7 14.8 19.4 E 1026.2 2.6 0.7 0.0
19-11-2018 14:48 5 78 6.4 1022.5 9.7 14.8 E 1026.0 2.9 3.4 0.0
19-11-2018 14:53 5 77 6.5 1022.5 18.4 25.6 NE 1026.0 2.8 -0.4 0.0
19-11-2018 14:58 5 76 6.2 1022.6 15.8 22.0 E 1026.1 2.3 0.2 0.0
19-11-2018 15:03 5 76 6.1 1022.7 15.8 24.5 E 1026.2 2.2 0.0 0.0
19-11-2018 15:08 5 75 6.2 1022.6 17.3 22.0 E 1026.1 2.1 -0.4 0.0
19-11-2018 15:13 5 75 6.3 1022.6 15.8 19.4 NE 1026.1 2.2 0.3 0.0
19-11-2018 15:18 5 74 6.4 1022.7 13.3 17.3 E 1026.2 2.1 1.5 0.0
19-11-2018 15:23 5 74 6.2 1022.6 18.4 22.0 NEE 1026.1 1.9 -0.8 0.0
19-11-2018 15:28 5 75 6.3 1022.6 13.3 19.4 E 1026.1 2.2 1.4 0.0
19-11-2018 15:33 5 75 6.4 1022.7 11.2 17.3 E 1026.2 2.3 2.6 0.0
19-11-2018 15:38 5 75 6.2 1022.8 14.8 22.0 E 1026.3 2.1 0.6 0.0
19-11-2018 15:43 5 76 6.3 1022.7 12.2 15.8 E 1026.2 2.4 1.9 0.0
19-11-2018 15:48 5 76 6.2 1022.6 12.2 17.3 E 1026.1 2.3 1.8 0.0
19-11-2018 15:53 5 79 5.9 1022.7 14.8 18.4 E 1026.2 2.5 0.3 0.0
19-11-2018 15:58 5 79 5.9 1022.7 17.3 27.0 E 1026.2 2.5 -0.8 0.0
19-11-2018 16:03 5 79 5.7 1022.7 15.8 23.4 NE 1026.2 2.4 -0.4 0.0
19-11-2018 16:08 5 80 5.6 1022.7 12.2 15.8 E 1026.2 2.4 1.1 0.0
19-11-2018 16:13 5 81 5.6 1022.7 13.3 20.9 NE 1026.2 2.6 0.6 0.0
19-11-2018 16:18 5 81 5.5 1022.8 14.8 22.0 E 1026.3 2.5 -0.2 0.0
19-11-2018 16:23 5 81 5.6 1022.6 17.3 23.4 E 1026.1 2.6 -1.1 0.0
19-11-2018 16:28 5 80 5.5 1022.7 12.2 18.4 NE 1026.2 2.3 1.0 0.0
19-11-2018 16:33 5 79 5.6 1022.8 13.3 17.3 NE 1026.3 2.3 0.6 0.0
19-11-2018 16:38 5 79 5.4 1022.6 12.2 15.8 E 1026.1 2.1 0.9 0.0
19-11-2018 16:43 5 79 5.3 1022.7 13.3 18.4 E 1026.2 2.0 0.2 0.0
19-11-2018 16:48 5 79 5.3 1022.8 9.7 14.8 NE 1026.3 2.0 2.2 0.0
19-11-2018 16:53 5 79 5.2 1022.7 12.2 18.4 SSE 1026.2 1.9 0.6 0.0
19-11-2018 16:58 5 79 5.2 1022.8 9.7 15.8 E 1026.3 1.9 2.1 0.0
19-11-2018 17:03 5 79 5.2 1022.8 13.3 19.4 NE 1026.3 1.9 0.1 0.0
19-11-2018 17:08 5 79 5.1 1022.9 9.7 13.3 NE 1026.4 1.8 2.0 0.0
19-11-2018 17:13 5 79 5.1 1022.8 8.6 12.2 E 1026.3 1.8 2.7 0.0
19-11-2018 17:18 5 79 5.1 1022.8 6.1 8.6 E 1026.3 1.8 5.1 0.0
19-11-2018 17:23 5 80 5.0 1022.8 9.7 12.2 SSE 1026.3 1.8 1.8 0.0
19-11-2018 17:28 5 81 5.0 1022.9 14.8 18.4 NEE 1026.4 2.0 -0.8 0.0
19-11-2018 17:33 5 81 5.0 1022.9 8.6 12.2 E 1026.4 2.0 2.6 0.0
19-11-2018 17:38 5 81 5.1 1022.8 7.2 11.2 NEE 1026.3 2.1 3.7 0.0
19-11-2018 17:43 5 81 5.1 1022.9 9.7 12.2 E 1026.4 2.1 2.0 0.0
19-11-2018 17:48 5 81 5.1 1022.7 9.7 17.3 NE 1026.2 2.1 2.0 0.0
19-11-2018 17:53 5 82 5.0 1022.8 8.6 12.2 NE 1026.3 2.2 2.6 0.0
19-11-2018 17:58 5 83 4.9 1022.7 6.1 9.7 NE 1026.2 2.3 4.9 0.0
19-11-2018 18:03 5 84 4.9 1022.7 9.7 14.8 E 1026.2 2.4 1.7 0.0
19-11-2018 18:08 5 83 5.0 1022.7 7.2 9.7 NE 1026.2 2.4 3.6 0.0
19-11-2018 18:13 5 83 5.0 1022.7 8.6 13.3 E 1026.2 2.4 2.6 0.0
19-11-2018 18:18 5 83 5.0 1022.5 13.3 18.4 NEE 1026.0 2.4 -0.2 0.0
19-11-2018 18:23 5 83 5.0 1022.6 9.7 15.8 NE 1026.1 2.4 1.8 0.0
19-11-2018 18:28 5 83 5.1 1022.7 9.7 12.2 E 1026.2 2.5 2.0 0.0
19-11-2018 18:33 5 83 5.1 1022.7 11.2 15.8 NE 1026.2 2.5 1.1 0.0
19-11-2018 18:38 5 83 5.2 1022.8 9.7 15.8 NNE 1026.3 2.6 2.1 0.0
19-11-2018 18:43 5 82 5.1 1022.9 13.3 17.3 NE 1026.4 2.3 0.0 0.0
19-11-2018 18:48 5 81 5.2 1022.9 13.3 23.4 NEE 1026.4 2.2 0.1 0.0
19-11-2018 18:53 5 80 5.2 1022.9 11.2 17.3 E 1026.4 2.0 1.2 0.0
19-11-2018 18:58 5 79 5.3 1023.0 12.2 22.0 E 1026.5 2.0 0.7 0.0
19-11-2018 19:03 5 78 5.3 1022.9 13.3 17.3 E 1026.4 1.8 0.2 0.0
19-11-2018 19:08 5 77 5.3 1022.9 14.8 18.4 NE 1026.4 1.6 -0.5 0.0
19-11-2018 19:13 5 77 5.3 1022.9 14.8 20.9 NE 1026.4 1.6 -0.5 0.0
19-11-2018 19:18 5 77 5.3 1022.8 17.3 24.5 SEE 1026.3 1.6 -1.5 0.0
19-11-2018 19:23 5 77 5.3 1022.8 15.8 20.9 NEE 1026.3 1.6 -0.9 0.0
19-11-2018 19:28 5 77 5.3 1022.9 14.8 18.4 NE 1026.4 1.6 -0.5 0.0
19-11-2018 19:33 5 77 5.3 1022.9 11.2 14.8 E 1026.4 1.6 1.3 0.0
19-11-2018 19:38 5 77 5.3 1022.8 18.4 20.9 E 1026.3 1.6 -1.9 0.0
19-11-2018 19:43 5 77 5.3 1023.0 15.8 20.9 E 1026.5 1.6 -0.9 0.0
19-11-2018 19:48 5 77 5.3 1022.9 15.8 19.4 NE 1026.4 1.6 -0.9 0.0
19-11-2018 19:53 5 77 5.3 1022.9 11.2 15.8 NEE 1026.4 1.6 1.3 0.0
19-11-2018 19:58 5 77 5.2 1022.9 13.3 18.4 E 1026.4 1.5 0.1 0.0
19-11-2018 20:03 5 77 5.2 1023.0 11.2 15.8 NE 1026.5 1.5 1.2 0.0
19-11-2018 20:08 5 77 5.3 1022.8 12.2 15.8 NEE 1026.3 1.6 0.7 0.0
19-11-2018 20:13 5 77 5.3 1022.7 12.2 18.4 E 1026.2 1.6 0.7 0.0
19-11-2018 20:18 5 77 5.2 1022.8 13.3 19.4 E 1026.3 1.5 0.1 0.0
19-11-2018 20:23 5 77 5.3 1022.9 8.6 15.8 NE 1026.4 1.6 2.9 0.0
19-11-2018 20:28 5 77 5.3 1022.9 13.3 20.9 NE 1026.4 1.6 0.2 0.0
19-11-2018 20:33 5 76 5.3 1022.9 14.8 22.0 NE 1026.4 1.4 -0.5 0.0
19-11-2018 20:38 5 76 5.3 1023.0 13.3 17.3 NE 1026.5 1.4 0.2 0.0
19-11-2018 20:43 5 76 5.3 1022.9 13.3 17.3 NE 1026.4 1.4 0.2 0.0
19-11-2018 20:48 5 76 5.3 1023.0 8.6 11.2 E 1026.5 1.4 2.9 0.0
19-11-2018 20:53 5 76 5.3 1022.9 11.2 17.3 SSE 1026.4 1.4 1.3 0.0
19-11-2018 20:58 5 75 5.2 1022.9 14.8 23.4 E 1026.4 1.1 -0.6 0.0
19-11-2018 21:03 5 75 5.2 1023.0 13.3 18.4 NE 1026.5 1.1 0.1 0.0
19-11-2018 21:08 5 75 5.3 1022.9 14.8 19.4 NEE 1026.4 1.2 -0.5 0.0
19-11-2018 21:13 5 75 5.3 1023.0 17.3 24.5 E 1026.5 1.2 -1.5 0.0
19-11-2018 21:18 5 75 5.3 1023.0 14.8 19.4 NEE 1026.5 1.2 -0.5 0.0
19-11-2018 21:23 5 75 5.2 1023.1 15.8 24.5 E 1026.6 1.1 -1.1 0.0
19-11-2018 21:28 5 75 5.2 1023.0 22.0 28.1 E 1026.5 1.1 -3.2 0.0
19-11-2018 21:33 5 75 5.2 1023.0 11.2 15.8 E 1026.5 1.1 1.2 0.0
19-11-2018 21:38 5 75 5.2 1023.1 19.4 24.5 E 1026.6 1.1 -2.4 0.0
19-11-2018 21:43 5 75 5.2 1022.9 18.4 24.5 E 1026.4 1.1 -2.0 0.0
19-11-2018 21:48 5 75 5.2 1023.0 14.8 19.4 NE 1026.5 1.1 -0.6 0.0
19-11-2018 21:53 5 75 5.2 1023.0 15.8 20.9 NE 1026.5 1.1 -1.1 0.0
19-11-2018 21:58 5 75 5.1 1023.0 14.8 20.9 E 1026.5 1.0 -0.7 0.0
19-11-2018 22:03 5 75 5.1 1022.9 17.3 23.4 NEE 1026.4 1.0 -1.8 0.0
19-11-2018 22:08 5 76 5.0 1022.9 14.8 20.9 NE 1026.4 1.1 -0.8 0.0
19-11-2018 22:13 5 76 5.0 1022.8 12.2 18.4 NE 1026.3 1.1 0.4 0.0
19-11-2018 22:18 5 77 4.9 1022.9 14.8 22.0 NE 1026.4 1.2 -1.0 0.0
19-11-2018 22:23 5 78 4.9 1022.9 15.8 18.4 NE 1026.4 1.4 -1.4 0.0
19-11-2018 22:28 5 78 4.8 1022.8 14.8 18.4 NE 1026.3 1.3 -1.1 0.0
19-11-2018 22:33 5 78 4.7 1022.7 14.8 18.4 E 1026.2 1.2 -1.2 0.0
19-11-2018 22:38 5 78 4.5 1022.9 13.3 17.3 NEE 1026.4 1.0 -0.7 0.0
19-11-2018 22:43 5 78 4.4 1022.9 12.2 18.4 NE 1026.4 0.9 -0.3 0.0
19-11-2018 22:48 5 79 4.3 1022.9 13.3 17.3 NE 1026.4 1.0 -1.0 0.0
19-11-2018 22:53 5 79 4.2 1022.9 12.2 18.4 NE 1026.4 0.9 -0.5 0.0
19-11-2018 22:58 5 80 4.0 1022.8 13.3 20.9 E 1026.3 0.9 -1.3 0.0
19-11-2018 23:03 5 80 4.0 1022.9 12.2 17.3 NE 1026.4 0.9 -0.8 0.0
19-11-2018 23:08 5 81 3.9 1022.8 12.2 17.3 E 1026.3 0.9 -0.9 0.0
19-11-2018 23:13 5 82 3.8 1022.8 8.6 12.2 E 1026.3 1.0 1.3 0.0
19-11-2018 23:18 5 82 3.8 1022.8 13.3 23.4 NE 1026.3 1.0 -1.6 0.0
19-11-2018 23:23 5 82 3.7 1022.7 11.2 15.8 NE 1026.2 0.9 -0.5 0.0
19-11-2018 23:28 5 83 3.5 1022.8 13.3 18.4 E 1026.3 0.9 -1.9 0.0
19-11-2018 23:33 5 83 3.5 1022.8 9.7 14.8 NE 1026.3 0.9 0.2 0.0
19-11-2018 23:38 5 83 3.4 1022.7 8.6 13.3 NE 1026.2 0.8 0.8 0.0
19-11-2018 23:43 5 84 3.3 1022.9 8.6 12.2 NE 1026.4 0.9 0.7 0.0
19-11-2018 23:48 5 84 3.3 1022.7 7.2 12.2 NE 1026.2 0.9 1.8 0.0
19-11-2018 23:53 5 84 3.3 1022.9 11.2 17.3 E 1026.4 0.9 -1.0 0.0
19-11-2018 23:58 5 84 3.4 1022.7 8.6 12.2 NE 1026.2 1.0 0.8 0.0

                                                                      Tabelle: 07 : 00 UHR

STATIONHÖHELUFTD.TEMP.T-MinT-MaxU%RR1RR12SSSDDFFFXWetter+WolkenBöen
UFS TW Ems 0 1028.3 7.7 7.5 9.4 76 ---- --- --- NO 43 --- --- ---
UFS Deutsche Bucht 0 1028.3 7.1 6.6 8.8 79 ---- --- --- O 50 --- --- ---
Helgoland 4 1028.1 6.2 6.0 8.1 81 0.0 0 0 NO 54 64 wolkenlos Windböen
List/Sylt 26 1030.5 4.0 4.0 6.8 78 0.0 0 0 NO 22 36 wolkenlos ---
Schleswig 43 1028.9 4.8 4.8 6.4 82 0.0 0 0 NO 24 45 bedeckt ---
Leuchtturm Kiel 5 1027.6 6.0 6.0 7.3 76 ---- --- --- NO 69 81 --- Sturmböen
Kiel 27 1028.3 5.9 5.8 7.0 78 0.0 0 0 NO 40 60 --- Windböen
Fehmarn 3 1028.4 5.3 5.3 6.9 84 0.1 0 0 NO 45 64 Regen Windböen
Arkona 42 1027.3 6.4 6.0 7.7 75 0.0 1 --- O 67 81 --- Sturmböen
Norderney 11 1027.4 6.6 6.4 7.8 79 0.0 0 0 NO 35 54 --- Windböen
Leuchtt. Alte Weser 32 1026.7 5.7 5.5 7.5 85 ---- --- --- NO 54 --- --- ---
Cuxhaven 5 1027.3 5.3 5.0 7.0 91 0.0 0 0 NO 29 47 --- ---
Hamburg-Flh. 11 1026.1 4.8 4.3 7.3 89 0.0 1 0 N 12 22 Regen ---
Schwerin 59 1026.0 4.6 4.5 6.1 87 0.2 0 0 NO 19 33 Regen ---
Rostock 4 1027.0 5.7 5.6 7.5 80 0.0 1 0 O 15 38 Regen ---
Greifswald 2 1026.5 5.1 4.9 7.7 85 0.3 3 0 O 29 44 Regenschauer ---
Emden 0 1026.7 5.4 5.2 6.5 83 0.0 0 0 NO 22 37 --- ---
Bremen-Flh. 5 1025.2 5.2 4.7 6.1 90 0.0 0 0 NO 22 34 Regen ---
Lüchow 17 1024.7 4.6 4.1 5.8 91 0.0 0 0 NO 16 28 --- ---
Marnitz 81 1025.1 4.1 3.9 5.4 89 0.0 1 0 O 14 24 --- ---
Waren 70 1025.5 4.1 4.0 5.9 82 0.0 1 0 NO 11 26 --- ---
Neuruppin 38 1024.3 4.3 3.5 5.9 87 0.0 0 --- NO 10 24 --- ---
Angermünde 56 1024.7 3.5 2.5 5.1 94 0.0 0 0 NO 18 27 leichter Regen ---
Münster/Osnabr.-Flh. 48 1023.2 5.3 -0.5 5.4 84 0.0 0 0 NO 20 39 bedeckt ---
Hannover-Flh. 59 1023.7 4.7 3.8 5.2 89 0.0 0 0 NO 18 31 Regen ---
Magdeburg 76 1022.8 3.9 3.7 5.1 84 0.0 0 0 NO 15 31 --- ---
Potsdam 81 1023.1 3.8 2.4 5.1 85 0.0 0 0 O 18 35 Regen ---
Berlin-Tegel 37 1023.6 4.3 3.0 5.3 84 0.0 0 0 NO 14 28 stark bewölkt ---
Berlin-Tempelhof 48 1023.3 4.2 3.0 5.9 82 0.0 0 --- NO 22 33 --- ---
Berlin-Dahlem 51 1023.2 4.2 3.1 5.8 --- ---- 0 0 O 18 --- stark bewölkt ---
Lindenberg 91 1022.6 3.2 2.8 4.3 89 0.0 0 0 NO 14 28 bedeckt ---
Düsseldorf-Flh. 45 1021.3 4.5 1.6 4.8 82 0.0 0 0 NO 24 38 Regen ---
Essen 150 1021.7 4.2 1.5 4.2 86 0.0 0 0 NO 21 33 --- ---
Kahler Asten 839 ------ -1.0 -3.5 -0.7 98 0.0 0 0 NO 33 59 Schneegriesel Windböen
Bad Lippspringe 157 1022.0 4.4 2.6 4.9 82 0.0 0 0 NO 18 35 --- ---
Fritzlar 174 1020.7 3.6 1.1 3.9 87 ---- 0 0 NO 11 --- bedeckt ---
Brocken 1142 ------ -3.8 -4.1 -2.0 96 ---- 7 5 NO 63 82 leichter Schneefall Sturmböen
Leipzig-Flh. 142 1021.3 2.9 0.2 4.0 --- 0.0 1 0 NO 18 35 leichter Regen ---
Dresden-Flh. 227 1020.6 1.5 -1.5 1.6 100 0.1 2 0 NO 12 21 leichter Regen ---
Cottbus 69 1021.5 3.5 0.6 4.0 88 0.0 2 0 NO 17 33 --- ---
Görlitz 238 ------ --- --- --- --- ---- --- --- -- --- --- --- ---
Aachen 231 1020.8 1.7 -1.7 1.7 95 0.0 0 0 NO 14 22 Dunst oder flacher Nebel ---
Nürburg 485 1020.4 -1.7 -2.9 1.5 88 0.0 0 0 NO 10 18 --- ---
Köln/Bonn-Flh. 92 1020.4 3.4 -3.1 4.2 84 0.0 0 0 NO 14 25 stark bewölkt ---
Gießen/Wettenberg 203 ------ --- --- --- --- ---- --- --- -- --- --- --- ---
Wasserkuppe 921 ------ -2.0 -4.1 -1.8 99 0.1 0 --- NO 25 43 Schneegriesel ---
Meiningen 450 1019.3 0.9 -1.8 1.5 89 0.0 0 0 NO 18 28 Schneefall ---
Erfurt 316 1020.2 1.6 -2.7 1.9 100 0.2 3 0 NO 20 34 leichter Regen ---
Gera 311 1020.0 1.3 -2.2 1.6 95 0.4 2 0 NO 15 30 Schneeregen ---
Fichtelberg 1213 ------ -4.6 -6.6 -4.0 95 ---- --- 4 O 30 43 leichter Schneefall ---
Trier 265 1018.3 1.8 -0.8 4.0 80 0.0 0 0 N 19 36 --- ---
Hahn-Flh. 497 1018.8 0.7 -2.1 1.8 92 0.0 0 0 NO 16 29 --- ---
Frankfurt/M-Flh. 112 1018.0 3.8 0.8 5.1 78 0.0 0 0 NO 17 31 Schneeregen ---
OF-Wetterpark 119 1018.2 2.7 -2.7 3.5 85 0.0 0 0 N 9 15 --- ---
Würzburg 268 1018.2 0.8 -0.9 4.2 96 0.5 1 0 NO 6 20 leichter Schneefall ---
Bamberg 239 1017.9 1.2 -1.8 3.8 89 0.1 0 0 NO 6 13 leichter Schneefall ---
Hof 567 1019.3 -1.8 -4.1 -1.8 99 0.3 0 1 NO 16 28 leichter Schneefall ---
Weiden 438 1018.0 -0.5 -3.1 3.1 88 0.0 0 0 NO 3 9 leichter Schneefall ---
Saarbrücken-Flh. 320 1017.4 0.1 -1.7 3.6 81 0.0 0 0 NO 13 33 stark bewölkt ---
Karlsruhe-Rheinst. 116 1017.2 0.0 -0.9 4.2 74 0.0 0 0 NO 12 20 --- ---
Mannheim 96 1017.5 1.6 -1.4 4.8 80 0.0 0 0 N 17 24 leichter Regen ---
Stuttgart-Flh. 371 1016.4 -0.5 -0.6 3.8 54 0.0 0 0 N 14 22 stark bewölkt ---
Öhringen 276 1017.4 0.0 -1.8 5.1 83 0.0 0 0 O 5 18 --- ---
Nürnberg-Flh. 314 1017.8 -1.4 -3.3 4.1 83 0.0 0 0 NW 2 8 stark bewölkt ---
Regensburg 366 1016.9 -0.4 -1.4 3.4 62 0.0 0 0 NO 17 29 --- ---
Straubing 351 1017.0 -0.7 -0.8 3.6 68 0.0 1 0 N 9 13 Schneefall ---
Großer Arber 1436 ------ -9.4 -9.7 -5.6 92 0.0 0 0 NO 25 46 Schneegriesel ---
Lahr 155 1015.6 -1.3 -1.7 3.2 66 0.0 0 --- NO 18 28 --- ---
Freudenstadt 797 ------ -4.0 -4.0 -0.4 69 0.0 0 0 NO 14 28 --- ---
Stötten 734 1016.0 -2.4 -2.6 1.3 54 0.0 0 0 O 21 32 --- ---
Augsburg 462 1016.2 -1.0 -1.1 2.4 68 0.0 0 0 NO 12 21 --- ---
München-Flh. 444 1016.1 -0.4 -0.4 2.3 89 0.0 0 0 NO 12 21 leichter Schneefall ---
Fürstenzell 476 1016.7 -1.4 -1.4 2.4 95 0.0 1 0 O 6 10 Schneefall ---
Feldberg/Schw. 1486 ------ -6.0 -6.0 -4.8 92 0.0 0 0 NO 47 66   Sturmböen
Konstanz 443 1013.0 1.9 0.4 3.3 80 0.0 0 0 NO 16 33 Regen ---
Kempten 705 1013.6 -0.8 -2.1 0.0 88 0.1 0 0 NO 7 19 leichter Schneefall ---
Oberstdorf 806 ------ -1.4 -1.5 -0.8 94 0.2 0 0 S 2 5 leichter Schneefall ---
Zugspitze 2960 ------ -14.1 -14.2 -11.3 88 ---- --- 2 O 28 37   ---
Hohenpeißenberg 977 ------ -3.2 -3.2 -2.2 98 0.2 1 3 NO 19 35 leichter Schneefall ---

                                                                                     Tabelle: 19 : 00 UHR 

STATIONHÖHELUFTD.TEMP.T-MinT-MaxU%RR1RR12SSSDDFFFXWetter+WolkenBöen
UFS TW Ems 0 1028.3 7.7 7.5 9.4 76 ---- --- --- NO 43 --- --- ---
UFS Deutsche Bucht 0 1028.3 7.1 6.6 8.8 79 ---- --- --- O 50 --- --- ---
Helgoland 4 1028.1 6.2 6.0 8.1 81 0.0 0 0 NO 54 64 wolkenlos Windböen
List/Sylt 26 1030.5 4.0 4.0 6.8 78 0.0 0 0 NO 22 36 wolkenlos ---
Schleswig 43 1028.9 4.8 4.8 6.4 82 0.0 0 0 NO 24 45 bedeckt ---
Leuchtturm Kiel 5 1027.6 6.0 6.0 7.3 76 ---- --- --- NO 69 81 --- Sturmböen
Kiel 27 1028.3 5.9 5.8 7.0 78 0.0 0 0 NO 40 60 --- Windböen
Fehmarn 3 1028.4 5.3 5.3 6.9 84 0.1 0 0 NO 45 64 Regen Windböen
Arkona 42 1027.3 6.4 6.0 7.7 75 0.0 1 --- O 67 81 --- Sturmböen
Norderney 11 1027.4 6.6 6.4 7.8 79 0.0 0 0 NO 35 54 --- Windböen
Leuchtt. Alte Weser 32 1026.7 5.7 5.5 7.5 85 ---- --- --- NO 54 --- --- ---
Cuxhaven 5 1027.3 5.3 5.0 7.0 91 0.0 0 0 NO 29 47 --- ---
Hamburg-Flh. 11 1026.1 4.8 4.3 7.3 89 0.0 1 0 N 12 22 Regen ---
Schwerin 59 1026.0 4.6 4.5 6.1 87 0.2 0 0 NO 19 33 Regen ---
Rostock 4 1027.0 5.7 5.6 7.5 80 0.0 1 0 O 15 38 Regen ---
Greifswald 2 1026.5 5.1 4.9 7.7 85 0.3 3 0 O 29 44 Regenschauer ---
Emden 0 1026.7 5.4 5.2 6.5 83 0.0 0 0 NO 22 37 --- ---
Bremen-Flh. 5 1025.2 5.2 4.7 6.1 90 0.0 0 0 NO 22 34 Regen ---
Lüchow 17 1024.7 4.6 4.1 5.8 91 0.0 0 0 NO 16 28 --- ---
Marnitz 81 1025.1 4.1 3.9 5.4 89 0.0 1 0 O 14 24 --- ---
Waren 70 1025.5 4.1 4.0 5.9 82 0.0 1 0 NO 11 26 --- ---
Neuruppin 38 1024.3 4.3 3.5 5.9 87 0.0 0 --- NO 10 24 --- ---
Angermünde 56 1024.7 3.5 2.5 5.1 94 0.0 0 0 NO 18 27 leichter Regen ---
Münster/Osnabr.-Flh. 48 1023.2 5.3 -0.5 5.4 84 0.0 0 0 NO 20 39 bedeckt ---
Hannover-Flh. 59 1023.7 4.7 3.8 5.2 89 0.0 0 0 NO 18 31 Regen ---
Magdeburg 76 1022.8 3.9 3.7 5.1 84 0.0 0 0 NO 15 31 --- ---
Potsdam 81 1023.1 3.8 2.4 5.1 85 0.0 0 0 O 18 35 Regen ---
Berlin-Tegel 37 1023.6 4.3 3.0 5.3 84 0.0 0 0 NO 14 28 stark bewölkt ---
Berlin-Tempelhof 48 1023.3 4.2 3.0 5.9 82 0.0 0 --- NO 22 33 --- ---
Berlin-Dahlem 51 1023.2 4.2 3.1 5.8 --- ---- 0 0 O 18 --- stark bewölkt ---
Lindenberg 91 1022.6 3.2 2.8 4.3 89 0.0 0 0 NO 14 28 bedeckt ---
Düsseldorf-Flh. 45 1021.3 4.5 1.6 4.8 82 0.0 0 0 NO 24 38 Regen ---
Essen 150 1021.7 4.2 1.5 4.2 86 0.0 0 0 NO 21 33 --- ---
Kahler Asten 839 ------ -1.0 -3.5 -0.7 98 0.0 0 0 NO 33 59 Schneegriesel Windböen
Bad Lippspringe 157 1022.0 4.4 2.6 4.9 82 0.0 0 0 NO 18 35 --- ---
Fritzlar 174 1020.7 3.6 1.1 3.9 87 ---- 0 0 NO 11 --- bedeckt ---
Brocken 1142 ------ -3.8 -4.1 -2.0 96 ---- 7 5 NO 63 82 leichter Schneefall Sturmböen
Leipzig-Flh. 142 1021.3 2.9 0.2 4.0 --- 0.0 1 0 NO 18 35 leichter Regen ---
Dresden-Flh. 227 1020.6 1.5 -1.5 1.6 100 0.1 2 0 NO 12 21 leichter Regen ---
Cottbus 69 1021.5 3.5 0.6 4.0 88 0.0 2 0 NO 17 33 --- ---
Görlitz 238 ------ --- --- --- --- ---- --- --- -- --- --- --- ---
Aachen 231 1020.8 1.7 -1.7 1.7 95 0.0 0 0 NO 14 22 Dunst oder flacher Nebel ---
Nürburg 485 1020.4 -1.7 -2.9 1.5 88 0.0 0 0 NO 10 18 --- ---
Köln/Bonn-Flh. 92 1020.4 3.4 -3.1 4.2 84 0.0 0 0 NO 14 25 stark bewölkt ---
Gießen/Wettenberg 203 ------ --- --- --- --- ---- --- --- -- --- --- --- ---
Wasserkuppe 921 ------ -2.0 -4.1 -1.8 99 0.1 0 --- NO 25 43 Schneegriesel ---
Meiningen 450 1019.3 0.9 -1.8 1.5 89 0.0 0 0 NO 18 28 Schneefall ---
Erfurt 316 1020.2 1.6 -2.7 1.9 100 0.2 3 0 NO 20 34 leichter Regen ---
Gera 311 1020.0 1.3 -2.2 1.6 95 0.4 2 0 NO 15 30 Schneeregen ---
Fichtelberg 1213 ------ -4.6 -6.6 -4.0 95 ---- --- 4 O 30 43 leichter Schneefall ---
Trier 265 1018.3 1.8 -0.8 4.0 80 0.0 0 0 N 19 36 --- ---
Hahn-Flh. 497 1018.8 0.7 -2.1 1.8 92 0.0 0 0 NO 16 29 --- ---
Frankfurt/M-Flh. 112 1018.0 3.8 0.8 5.1 78 0.0 0 0 NO 17 31 Schneeregen ---
OF-Wetterpark 119 1018.2 2.7 -2.7 3.5 85 0.0 0 0 N 9 15 --- ---
Würzburg 268 1018.2 0.8 -0.9 4.2 96 0.5 1 0 NO 6 20 leichter Schneefall ---
Bamberg 239 1017.9 1.2 -1.8 3.8 89 0.1 0 0 NO 6 13 leichter Schneefall ---
Hof 567 1019.3 -1.8 -4.1 -1.8 99 0.3 0 1 NO 16 28 leichter Schneefall ---
Weiden 438 1018.0 -0.5 -3.1 3.1 88 0.0 0 0 NO 3 9 leichter Schneefall ---
Saarbrücken-Flh. 320 1017.4 0.1 -1.7 3.6 81 0.0 0 0 NO 13 33 stark bewölkt ---
Karlsruhe-Rheinst. 116 1017.2 0.0 -0.9 4.2 74 0.0 0 0 NO 12 20 --- ---
Mannheim 96 1017.5 1.6 -1.4 4.8 80 0.0 0 0 N 17 24 leichter Regen ---
Stuttgart-Flh. 371 1016.4 -0.5 -0.6 3.8 54 0.0 0 0 N 14 22 stark bewölkt ---
Öhringen 276 1017.4 0.0 -1.8 5.1 83 0.0 0 0 O 5 18 --- ---
Nürnberg-Flh. 314 1017.8 -1.4 -3.3 4.1 83 0.0 0 0 NW 2 8 stark bewölkt ---
Regensburg 366 1016.9 -0.4 -1.4 3.4 62 0.0 0 0 NO 17 29 --- ---
Straubing 351 1017.0 -0.7 -0.8 3.6 68 0.0 1 0 N 9 13 Schneefall ---
Großer Arber 1436 ------ -9.4 -9.7 -5.6 92 0.0 0 0 NO 25 46 Schneegriesel ---
Lahr 155 1015.6 -1.3 -1.7 3.2 66 0.0 0 --- NO 18 28 --- ---
Freudenstadt 797 ------ -4.0 -4.0 -0.4 69 0.0 0 0 NO 14 28 --- ---
Stötten 734 1016.0 -2.4 -2.6 1.3 54 0.0 0 0 O 21 32 --- ---
Augsburg 462 1016.2 -1.0 -1.1 2.4 68 0.0 0 0 NO 12 21 --- ---
München-Flh. 444 1016.1 -0.4 -0.4 2.3 89 0.0 0 0 NO 12 21 leichter Schneefall ---
Fürstenzell 476 1016.7 -1.4 -1.4 2.4 95 0.0 1 0 O 6 10 Schneefall ---
Feldberg/Schw. 1486 ------ -6.0 -6.0 -4.8 92 0.0 0 0 NO 47 66   Sturmböen
Konstanz 443 1013.0 1.9 0.4 3.3 80 0.0 0 0 NO 16 33 Regen ---
Kempten 705 1013.6 -0.8 -2.1 0.0 88 0.1 0 0 NO 7 19 leichter Schneefall ---
Oberstdorf 806 ------ -1.4 -1.5 -0.8 94 0.2 0 0 S 2 5 leichter Schneefall ---
Zugspitze 2960 ------ -14.1 -14.2 -11.3 88 ---- --- 2 O 28 37   ---
Hohenpeißenberg 977 ------ -3.2 -3.2 -2.2 98 0.2 1 3 NO 19 35 leichter Schneefall ---

 

  • Temperatur
  • Wetterzustand
  • Windrichtung und -geschwindigkeit
  • Luftdruck
  • relative Luftfeuchtigkeit
  • Sichtweite
  • Gesamtbedeckungsgrad
  • Niederschlag
  • Sonnenscheindauer

 Höhe:     m über NN
Luftd.:   auf Meereshöhe reduzierter Luftdruck in hPa
TEMP.:   Lufttemperatur in Grad Celsius
T-MIN:   Minimumtemperatur der Luft in 2m Höhe in Grad Celsius, von 18 UTC Vortag bis 06 UTC heute
T-MAX:  Maximumtemperatur der Luft in 2m Höhe in Grad Celsius, von 18 UTC Vortag bis 06 UTC heute
RR1:     Niederschlagsmenge, einstündig, mm ist gleich Liter pro
RR12:   Niederschlagsmenge, 12 stündig, 18 UTC Vortag bis 06 UTC heute in mm ist gleich Liter pro
SSS:     Gesamtschneehöhe
DD:      Windrichtung
FF:       Windgeschwindigkeit letztes 10-Minutenmittel in km/h
FX:       höchste Windspitze während der letzten Stunde in km/h
---:      Wert nicht vorhanden

 

2009-2018

Unwetterwarnungen

 

Radarbild          
aktueller Radarfilm Deutschland

Europa-Meteoalarm